Salinas Municipal Airport Salinas US
ICAO: KSNS
IATA: SNS
Category: Medium
Scheduled Services: No

Elevation: 85 ft
TransAlt. 18000 ft.

Airport Communications:
NORCAL APP/DEP:127.15
ATIS:124.85
CTAF:119.4
GND:121.7
OAKLAND RDO:122.6
TWR:119.4
UNICOM:122.95

KSNS Zoom In..

Runways:

(A) RW 08 length 6004 ft width 150 ft
---- / hdg 81

(B) RW 13 length 4825 ft width 150 ft
---- / hdg 132

(C) RW 26 length 6004 ft width 150 ft
---- / hdg 261

(D) RW 31 length 4825 ft width 150 ft
ILS 108.50 / hdg 312

Location; KSNS
Day. 16 / Time. 00.53 Zulu
* Altimeter: 29.91
* Temperature: 19° c. 66.2°f.
* Wind from: 340° Speed 13 kn.
Dewpoint: 12° c.
Visibility: 10 Statute Miles.
Clouds: Few 1700 ft.

KSNS 160053Z 34013KT 10SM FEW017 19/12 A2991 RMK AO2 SLP138 T01940117

Going to: --> -->


Wind From 340°
Speed 13 kn.

 
 
jpsmedia worldairports.se 2020   terms of use